createdAt,value
2022-09-06T00:02:05.090Z,26.22
2022-09-06T00:04:32.379Z,26.20
2022-09-06T00:06:59.732Z,26.20
2022-09-06T00:09:27.037Z,26.21
2022-09-06T00:11:54.271Z,26.20
2022-09-06T00:14:21.566Z,26.21
2022-09-06T00:16:48.819Z,26.20
2022-09-06T00:19:17.494Z,26.19
2022-09-06T00:21:44.762Z,26.15
2022-09-06T00:24:12.221Z,26.12
2022-09-06T00:26:39.572Z,26.11
2022-09-06T00:29:06.871Z,26.08
2022-09-06T00:31:35.595Z,26.07
2022-09-06T00:34:03.057Z,26.05
2022-09-06T00:36:31.733Z,26.00
2022-09-06T00:38:59.017Z,25.96
2022-09-06T00:41:26.370Z,25.92
2022-09-06T00:43:54.643Z,25.89
2022-09-06T00:46:25.314Z,25.85
2022-09-06T00:49:03.290Z,25.78
2022-09-06T00:51:34.799Z,25.76
2022-09-06T00:54:03.953Z,25.69
2022-09-06T00:56:34.986Z,25.65
2022-09-06T00:59:02.467Z,25.59
2022-09-06T01:01:29.919Z,25.56
2022-09-06T01:03:57.469Z,25.55
2022-09-06T01:06:36.621Z,25.52
2022-09-06T01:09:21.394Z,25.40
2022-09-06T01:12:08.521Z,25.29
2022-09-06T01:14:55.927Z,25.20
2022-09-06T01:17:41.634Z,25.17
2022-09-06T01:20:41.870Z,25.11
2022-09-06T01:23:55.566Z,25.05
2022-09-06T01:26:56.534Z,25.01
2022-09-06T01:29:33.911Z,25.03
2022-09-06T01:32:14.953Z,25.01
2022-09-06T01:34:50.793Z,25.00
2022-09-06T01:37:20.347Z,24.98
2022-09-06T01:39:47.932Z,24.99
2022-09-06T01:42:22.550Z,24.95
2022-09-06T01:44:56.252Z,24.93
2022-09-06T01:47:39.877Z,24.90
2022-09-06T01:50:35.556Z,24.86
2022-09-06T01:53:22.502Z,24.85
2022-09-06T01:56:00.393Z,24.83
2022-09-06T01:59:01.938Z,24.78
2022-09-06T02:01:39.106Z,24.78
2022-09-06T02:04:19.580Z,24.79
2022-09-06T02:06:54.726Z,24.83
2022-09-06T02:09:28.687Z,24.85
2022-09-06T02:12:00.452Z,24.86
2022-09-06T02:14:33.976Z,24.84
2022-09-06T02:17:05.811Z,24.80
2022-09-06T02:19:39.727Z,24.73
2022-09-06T02:22:12.530Z,24.73
2022-09-06T02:24:44.442Z,24.71
2022-09-06T02:27:13.449Z,24.71
2022-09-06T02:29:41.469Z,24.72
2022-09-06T02:32:17.977Z,24.69
2022-09-06T02:34:46.274Z,24.71
2022-09-06T02:37:17.574Z,24.73
2022-09-06T02:39:45.239Z,24.75
2022-09-06T02:42:15.563Z,24.74
2022-09-06T02:44:43.028Z,24.73
2022-09-06T02:47:11.765Z,24.74
2022-09-06T02:49:39.229Z,24.73
2022-09-06T02:52:06.544Z,24.75
2022-09-06T02:54:33.798Z,24.74
2022-09-06T02:57:01.077Z,24.72
2022-09-06T02:59:28.354Z,24.74
2022-09-06T03:01:55.704Z,24.74
2022-09-06T03:04:24.611Z,24.76
2022-09-06T03:06:51.926Z,24.76
2022-09-06T03:09:19.214Z,24.78
2022-09-06T03:11:46.478Z,24.78
2022-09-06T03:14:16.203Z,24.79
2022-09-06T03:16:45.389Z,24.77
2022-09-06T03:19:12.781Z,24.77
2022-09-06T03:21:41.404Z,24.75
2022-09-06T03:24:08.700Z,24.74
2022-09-06T03:26:35.930Z,24.72
2022-09-06T03:29:03.227Z,24.70
2022-09-06T03:31:30.485Z,24.67
2022-09-06T03:33:57.875Z,24.63
2022-09-06T03:36:25.126Z,24.59
2022-09-06T03:38:54.150Z,24.55
2022-09-06T03:41:21.561Z,24.53
2022-09-06T03:43:48.810Z,24.52
2022-09-06T03:46:16.132Z,24.52
2022-09-06T03:48:43.432Z,24.47
2022-09-06T03:51:10.651Z,24.47
2022-09-06T03:53:37.968Z,24.46
2022-09-06T03:56:06.982Z,24.44
2022-09-06T03:58:34.292Z,24.46
2022-09-06T04:01:05.550Z,24.48
2022-09-06T04:03:33.967Z,24.48
2022-09-06T04:06:01.900Z,24.47
2022-09-06T04:08:29.667Z,24.47
2022-09-06T04:10:58.464Z,24.47
2022-09-06T04:13:28.992Z,24.49
2022-09-06T04:15:56.851Z,24.50
2022-09-06T04:18:24.405Z,24.49
2022-09-06T04:20:55.911Z,24.49
2022-09-06T04:23:25.440Z,24.48
2022-09-06T04:25:55.236Z,24.46
2022-09-06T04:28:23.638Z,24.43
2022-09-06T04:30:55.331Z,24.35
2022-09-06T04:33:26.745Z,24.33
2022-09-06T04:35:54.899Z,24.31
2022-09-06T04:38:22.533Z,24.30
2022-09-06T04:40:50.142Z,24.31
2022-09-06T04:43:17.792Z,24.29
2022-09-06T04:45:45.697Z,24.28
2022-09-06T04:48:14.701Z,24.30
2022-09-06T04:50:42.647Z,24.33
2022-09-06T04:53:11.111Z,24.29
2022-09-06T04:55:38.756Z,24.27
2022-09-06T04:58:06.614Z,24.26
2022-09-06T05:00:36.057Z,24.21
2022-09-06T05:03:03.318Z,24.20
2022-09-06T05:05:31.949Z,24.16
2022-09-06T05:07:59.208Z,24.15
2022-09-06T05:10:26.640Z,24.16
2022-09-06T05:12:55.032Z,24.14
2022-09-06T05:15:23.222Z,24.07
2022-09-06T05:17:50.555Z,24.04
2022-09-06T05:20:18.692Z,24.03
2022-09-06T05:22:54.377Z,24.00
2022-09-06T05:25:21.721Z,24.02
2022-09-06T05:27:49.116Z,24.00
2022-09-06T05:30:18.097Z,24.01
2022-09-06T05:32:45.623Z,24.02
2022-09-06T05:35:13.032Z,24.03
2022-09-06T05:37:40.512Z,24.00
2022-09-06T05:40:10.741Z,24.02
2022-09-06T05:42:38.348Z,24.03
2022-09-06T05:45:06.953Z,24.04
2022-09-06T05:47:35.488Z,24.05
2022-09-06T05:50:03.838Z,24.11
2022-09-06T05:52:31.178Z,24.14
2022-09-06T05:54:58.471Z,24.12
2022-09-06T05:57:27.400Z,24.07
2022-09-06T05:59:54.653Z,24.01
2022-09-06T06:02:22.959Z,23.98
2022-09-06T06:04:52.114Z,23.99
2022-09-06T06:07:19.403Z,24.03
2022-09-06T06:09:46.751Z,24.04
2022-09-06T06:12:14.077Z,24.06
2022-09-06T06:14:42.772Z,24.08
2022-09-06T06:17:10.127Z,24.08
2022-09-06T06:19:37.549Z,24.09
2022-09-06T06:22:05.067Z,24.10
2022-09-06T06:24:32.370Z,24.09
2022-09-06T06:26:59.692Z,24.07
2022-09-06T06:29:26.999Z,24.07
2022-09-06T06:31:56.130Z,24.08
2022-09-06T06:34:23.468Z,24.05
2022-09-06T06:36:50.701Z,24.07
2022-09-06T06:39:17.971Z,24.07
2022-09-06T06:41:45.506Z,24.08
2022-09-06T06:44:12.803Z,24.10
2022-09-06T06:46:41.612Z,24.13
2022-09-06T06:49:10.710Z,24.16
2022-09-06T06:51:38.143Z,24.14
2022-09-06T06:54:06.007Z,24.17
2022-09-06T06:56:36.715Z,24.15
2022-09-06T06:59:07.025Z,24.15
2022-09-06T07:01:36.382Z,24.17
2022-09-06T07:04:05.148Z,24.23
2022-09-06T07:12:24.630Z,24.45
2022-09-06T07:14:52.423Z,24.51
2022-09-06T07:17:19.849Z,24.59
2022-09-06T07:22:36.479Z,24.71
2022-09-06T07:25:05.409Z,24.77
2022-09-06T07:27:48.875Z,24.82
2022-09-06T07:30:17.456Z,24.86
2022-09-06T07:32:44.689Z,24.91
2022-09-06T07:35:13.944Z,24.95
2022-09-06T07:37:42.837Z,25.00
2022-09-06T07:40:11.677Z,25.00
2022-09-06T07:42:40.946Z,25.01
2022-09-06T07:45:09.734Z,25.03
2022-09-06T07:53:16.675Z,24.89
2022-09-06T07:55:47.047Z,24.85
2022-09-06T07:58:14.372Z,24.73
2022-09-06T08:00:41.803Z,24.72
2022-09-06T08:03:10.244Z,24.77
2022-09-06T08:11:14.209Z,24.94
2022-09-06T08:13:42.353Z,24.98
2022-09-06T08:16:11.967Z,24.98
2022-09-06T08:18:39.522Z,24.97
2022-09-06T08:21:12.199Z,25.00
2022-09-06T08:23:45.949Z,24.99
2022-09-06T08:26:14.052Z,25.00
2022-09-06T08:28:41.814Z,25.02
2022-09-06T08:31:11.779Z,25.07
2022-09-06T08:33:40.973Z,25.16
2022-09-06T08:36:09.538Z,25.20
2022-09-06T08:38:37.675Z,25.18
2022-09-06T08:41:21.448Z,25.14
2022-09-06T08:46:54.328Z,25.16
2022-09-06T08:49:22.050Z,25.18
2022-09-06T08:52:10.680Z,25.18
2022-09-06T08:54:45.950Z,25.19
2022-09-06T08:57:34.955Z,25.16
2022-09-06T09:00:11.078Z,25.17
2022-09-06T09:02:45.852Z,25.23
2022-09-06T09:05:27.565Z,25.29
2022-09-06T09:08:13.522Z,25.35
2022-09-06T09:10:46.161Z,25.37
2022-09-06T09:13:25.659Z,25.41
2022-09-06T09:15:54.134Z,25.43
2022-09-06T09:18:28.138Z,25.40
2022-09-06T09:20:56.100Z,25.41
2022-09-06T09:23:23.398Z,25.40
2022-09-06T09:25:55.501Z,25.40
2022-09-06T09:28:24.916Z,25.39
2022-09-06T09:30:55.766Z,25.40
2022-09-06T09:33:30.419Z,25.39
2022-09-06T09:36:01.242Z,25.38
2022-09-06T09:38:33.014Z,25.38
2022-09-06T09:41:05.255Z,25.38
2022-09-06T09:43:37.831Z,25.34
2022-09-06T09:46:27.838Z,25.27
2022-09-06T09:49:05.667Z,25.22
2022-09-06T09:51:36.660Z,25.20
2022-09-06T09:54:06.899Z,25.20
2022-09-06T09:56:43.752Z,25.20
2022-09-06T09:59:29.217Z,25.20
2022-09-06T10:02:01.456Z,25.22
2022-09-06T10:04:45.342Z,25.16
2022-09-06T10:07:16.232Z,25.10
2022-09-06T10:09:47.239Z,25.08
2022-09-06T10:12:19.810Z,25.12
2022-09-06T10:14:49.800Z,25.25
2022-09-06T10:17:30.433Z,25.36
2022-09-06T10:20:03.569Z,25.41
2022-09-06T10:22:33.714Z,25.46
2022-09-06T10:25:39.647Z,25.42
2022-09-06T10:28:33.418Z,25.44
2022-09-06T10:31:31.478Z,25.45
2022-09-06T10:34:40.849Z,25.43
2022-09-06T10:37:26.575Z,25.40
2022-09-06T10:40:02.790Z,25.41
2022-09-06T10:42:39.193Z,25.39
2022-09-06T10:45:44.727Z,25.29
2022-09-06T10:48:24.231Z,25.26
2022-09-06T10:50:58.108Z,25.26
2022-09-06T10:53:49.008Z,25.23
2022-09-06T10:56:24.017Z,25.24
2022-09-06T11:02:00.375Z,25.19
2022-09-06T11:07:30.021Z,25.05
2022-09-06T11:10:03.059Z,25.03
2022-09-06T11:12:40.235Z,25.01
2022-09-06T11:15:13.220Z,25.05
2022-09-06T11:17:51.285Z,25.07
2022-09-06T11:20:32.005Z,25.12
2022-09-06T11:23:48.554Z,25.01
2022-09-06T11:26:45.752Z,25.04
2022-09-06T11:29:22.725Z,25.12
2022-09-06T11:34:51.825Z,25.02
2022-09-06T11:37:30.698Z,25.03
2022-09-06T11:40:32.121Z,25.12
2022-09-06T11:43:42.731Z,25.21
2022-09-06T11:46:58.923Z,25.28
2022-09-06T11:49:37.333Z,25.41
2022-09-06T11:53:03.009Z,25.52
2022-09-06T11:55:38.442Z,25.74
2022-09-06T11:58:19.181Z,25.92
2022-09-06T12:01:25.521Z,26.13
2022-09-06T12:04:07.877Z,26.28
2022-09-06T12:06:40.778Z,26.48
2022-09-06T12:09:29.399Z,26.56
2022-09-06T12:11:59.426Z,26.68
2022-09-06T12:14:40.321Z,26.75
2022-09-06T12:17:47.709Z,26.84
2022-09-06T12:21:01.324Z,26.99
2022-09-06T12:23:42.599Z,27.04
2022-09-06T12:26:11.197Z,27.07
2022-09-06T12:28:49.742Z,27.09
2022-09-06T12:31:29.403Z,27.20
2022-09-06T12:33:58.475Z,27.27
2022-09-06T12:36:31.059Z,27.39
2022-09-06T12:39:02.376Z,27.57
2022-09-06T12:41:40.420Z,27.71
2022-09-06T12:44:16.235Z,27.78
2022-09-06T12:46:47.880Z,27.86
2022-09-06T12:49:23.333Z,27.97
2022-09-06T12:51:51.073Z,28.07
2022-09-06T12:54:22.491Z,28.10
2022-09-06T12:56:50.610Z,28.11
2022-09-06T12:59:22.048Z,28.13
2022-09-06T13:02:00.914Z,28.10
2022-09-06T13:04:37.729Z,28.13
2022-09-06T13:07:09.316Z,28.08
2022-09-06T13:09:40.536Z,28.11
2022-09-06T13:12:37.439Z,28.13
2022-09-06T13:15:13.849Z,28.18
2022-09-06T13:17:41.491Z,28.26
2022-09-06T13:20:22.012Z,28.37
2022-09-06T13:22:52.190Z,28.49
2022-09-06T13:25:26.211Z,28.59
2022-09-06T13:27:58.436Z,28.66
2022-09-06T13:30:41.959Z,28.72
2022-09-06T13:33:25.471Z,28.78
2022-09-06T13:36:08.419Z,28.80
2022-09-06T13:38:41.924Z,28.74
2022-09-06T13:41:41.155Z,28.75
2022-09-06T13:44:27.450Z,28.85
2022-09-06T13:46:56.502Z,28.93
2022-09-06T13:49:24.073Z,29.01
2022-09-06T13:51:53.673Z,29.06
2022-09-06T13:54:22.910Z,29.06
2022-09-06T13:56:50.755Z,29.01
2022-09-06T13:59:19.076Z,28.91
2022-09-06T14:01:49.842Z,28.86
2022-09-06T14:04:21.544Z,28.80
2022-09-06T14:06:49.702Z,28.79
2022-09-06T14:09:17.078Z,28.96
2022-09-06T14:11:48.197Z,29.39
2022-09-06T14:14:17.757Z,29.55
2022-09-06T14:16:47.578Z,29.50
2022-09-06T14:19:15.970Z,29.42
2022-09-06T14:21:44.711Z,29.30
2022-09-06T14:24:12.369Z,29.18
2022-09-06T14:26:39.877Z,29.05
2022-09-06T14:29:08.236Z,28.94
2022-09-06T14:31:35.648Z,28.82
2022-09-06T14:34:04.188Z,28.76
2022-09-06T14:36:34.723Z,28.68
2022-09-06T14:39:04.492Z,28.60
2022-09-06T14:41:32.660Z,28.56
2022-09-06T14:44:00.578Z,28.51
2022-09-06T14:46:29.789Z,28.50
2022-09-06T14:48:59.469Z,28.49
2022-09-06T14:51:27.263Z,28.52
2022-09-06T14:53:57.517Z,28.48
2022-09-06T14:56:27.091Z,28.48
2022-09-06T14:58:57.465Z,28.47
2022-09-06T15:01:28.618Z,28.43
2022-09-06T15:03:59.097Z,28.46
2022-09-06T15:06:27.885Z,28.49
2022-09-06T15:08:59.304Z,28.67
2022-09-06T15:11:34.647Z,28.93
2022-09-06T15:14:04.255Z,29.27
2022-09-06T15:16:32.757Z,29.36
2022-09-06T15:19:02.293Z,29.43
2022-09-06T15:21:31.744Z,29.61
2022-09-06T15:24:00.318Z,29.65
2022-09-06T15:26:30.580Z,29.58
2022-09-06T15:28:58.012Z,29.44
2022-09-06T15:31:25.558Z,29.35
2022-09-06T15:33:54.053Z,29.27
2022-09-06T15:36:22.508Z,29.29
2022-09-06T15:38:52.403Z,29.20
2022-09-06T15:41:24.327Z,29.03
2022-09-06T15:43:56.708Z,28.96
2022-09-06T15:46:43.901Z,28.78
2022-09-06T15:49:15.633Z,28.75
2022-09-06T15:51:43.386Z,28.74
2022-09-06T15:54:12.946Z,28.85
2022-09-06T15:56:41.024Z,29.04
2022-09-06T15:59:10.823Z,29.02
2022-09-06T16:01:38.992Z,28.95
2022-09-06T16:04:07.218Z,28.83
2022-09-06T16:06:39.577Z,28.70
2022-09-06T16:09:10.942Z,28.58
2022-09-06T16:11:38.814Z,28.50
2022-09-06T16:14:10.090Z,28.41
2022-09-06T16:16:38.324Z,28.27
2022-09-06T16:19:06.488Z,28.15
2022-09-06T16:21:37.956Z,28.06
2022-09-06T16:24:08.216Z,27.95
2022-09-06T16:26:39.201Z,27.88
2022-09-06T16:29:10.331Z,27.81
2022-09-06T16:31:40.520Z,27.76
2022-09-06T16:34:08.941Z,27.74
2022-09-06T16:36:37.274Z,27.76
2022-09-06T16:39:05.517Z,27.78
2022-09-06T16:41:39.420Z,27.73
2022-09-06T16:44:07.516Z,27.70
2022-09-06T16:46:36.618Z,27.66
2022-09-06T16:49:04.724Z,27.65
2022-09-06T16:51:32.547Z,27.66
2022-09-06T16:54:01.574Z,27.76
2022-09-06T16:56:33.534Z,27.88
2022-09-06T16:59:04.550Z,27.97
2022-09-06T17:01:33.586Z,28.06
2022-09-06T17:04:03.956Z,28.12
2022-09-06T17:06:42.070Z,28.20
2022-09-06T17:09:09.721Z,28.26
2022-09-06T17:11:38.776Z,28.33
2022-09-06T17:14:06.683Z,28.33
2022-09-06T17:16:52.899Z,28.34
2022-09-06T17:19:22.100Z,28.25
2022-09-06T17:21:49.674Z,28.19
2022-09-06T17:24:17.115Z,28.10
2022-09-06T17:26:44.534Z,28.00
2022-09-06T17:29:11.964Z,27.88
2022-09-06T17:31:39.531Z,27.77
2022-09-06T17:34:07.760Z,27.65
2022-09-06T17:36:37.117Z,27.56
2022-09-06T17:39:08.241Z,27.48
2022-09-06T17:41:38.926Z,27.37
2022-09-06T17:44:08.136Z,27.28
2022-09-06T17:46:35.542Z,27.18
2022-09-06T17:49:09.417Z,27.08
2022-09-06T17:51:39.191Z,27.02
2022-09-06T17:54:08.532Z,26.96
2022-09-06T17:56:37.104Z,26.90
2022-09-06T17:59:08.250Z,26.84
2022-09-06T18:01:38.542Z,26.80
2022-09-06T18:04:14.437Z,26.74
2022-09-06T18:06:47.527Z,26.70
2022-09-06T18:09:17.816Z,26.62
2022-09-06T18:11:47.035Z,26.58
2022-09-06T18:14:17.662Z,26.52
2022-09-06T18:16:47.227Z,26.49
2022-09-06T18:19:15.491Z,26.45
2022-09-06T18:21:43.218Z,26.41
2022-09-06T18:24:15.979Z,26.36
2022-09-06T18:26:44.576Z,26.28
2022-09-06T18:29:16.733Z,26.22
2022-09-06T18:31:44.851Z,26.16
2022-09-06T18:34:12.588Z,26.12
2022-09-06T18:36:40.445Z,26.08
2022-09-06T18:39:08.636Z,26.05
2022-09-06T18:41:55.808Z,25.99
2022-09-06T18:44:23.760Z,25.90
2022-09-06T18:46:55.708Z,25.86
2022-09-06T18:49:23.182Z,25.82
2022-09-06T18:51:50.858Z,25.78
2022-09-06T18:54:18.564Z,25.74
2022-09-06T18:56:49.967Z,25.68
2022-09-06T18:59:18.054Z,25.65
2022-09-06T19:01:45.695Z,25.60
2022-09-06T19:04:15.087Z,25.54
2022-09-06T19:06:44.347Z,25.49
2022-09-06T19:09:14.990Z,25.45
2022-09-06T19:11:45.466Z,25.43
2022-09-06T19:14:14.406Z,25.40
2022-09-06T19:16:42.216Z,25.37
2022-09-06T19:19:11.718Z,25.36
2022-09-06T19:21:42.037Z,25.33
2022-09-06T19:24:12.485Z,25.30
2022-09-06T19:26:44.122Z,25.27
2022-09-06T19:29:17.123Z,25.24
2022-09-06T19:31:46.967Z,25.22
2022-09-06T19:34:15.580Z,25.17
2022-09-06T19:36:44.605Z,25.16
2022-09-06T19:39:15.581Z,25.14
2022-09-06T19:41:45.164Z,25.12
2022-09-06T19:44:16.058Z,25.09
2022-09-06T19:46:46.148Z,25.05
2022-09-06T19:49:15.393Z,25.04
2022-09-06T19:51:45.243Z,25.03
2022-09-06T19:54:12.944Z,25.00
2022-09-06T19:56:44.347Z,24.97
2022-09-06T19:59:14.782Z,24.95
2022-09-06T20:01:45.383Z,24.96
2022-09-06T20:04:14.372Z,24.94
2022-09-06T20:06:42.270Z,24.93
2022-09-06T20:09:11.203Z,24.89
2022-09-06T20:11:41.739Z,24.86
2022-09-06T20:14:10.355Z,24.83
2022-09-06T20:16:42.210Z,24.81
2022-09-06T20:19:12.251Z,24.78
2022-09-06T20:21:40.014Z,24.74
2022-09-06T20:24:08.010Z,24.72
2022-09-06T20:26:35.752Z,24.69
2022-09-06T20:29:05.052Z,24.67
2022-09-06T20:31:34.562Z,24.67
2022-09-06T20:34:05.564Z,24.66
2022-09-06T20:36:32.983Z,24.66
2022-09-06T20:39:00.520Z,24.64
2022-09-06T20:41:28.015Z,24.63
2022-09-06T20:43:57.502Z,24.63
2022-09-06T20:46:27.629Z,24.61
2022-09-06T20:48:59.679Z,24.58
2022-09-06T20:51:28.406Z,24.56
2022-09-06T20:53:58.042Z,24.54
2022-09-06T20:56:27.997Z,24.50
2022-09-06T20:58:58.929Z,24.46
2022-09-06T21:01:29.538Z,24.45
2022-09-06T21:03:59.825Z,24.41
2022-09-06T21:06:31.312Z,24.40
2022-09-06T21:08:58.603Z,24.37
2022-09-06T21:11:26.325Z,24.35
2022-09-06T21:13:56.412Z,24.35
2022-09-06T21:16:27.548Z,24.33
2022-09-06T21:18:57.278Z,24.29
2022-09-06T21:21:25.896Z,24.27
2022-09-06T21:23:55.028Z,24.23
2022-09-06T21:26:23.209Z,24.21
2022-09-06T21:28:50.907Z,24.19
2022-09-06T21:31:24.134Z,24.17
2022-09-06T21:33:54.098Z,24.15
2022-09-06T21:36:24.517Z,24.12
2022-09-06T21:38:56.271Z,24.05
2022-09-06T21:41:24.004Z,24.01
2022-09-06T21:43:53.672Z,23.99
2022-09-06T21:46:26.011Z,23.96
2022-09-06T21:48:56.354Z,23.92
2022-09-06T21:51:27.295Z,23.91
2022-09-06T21:54:03.330Z,23.89
2022-09-06T21:56:31.829Z,23.89
2022-09-06T21:58:59.774Z,23.88
2022-09-06T22:01:31.956Z,23.88
2022-09-06T22:04:00.254Z,23.89
2022-09-06T22:06:30.704Z,23.88
2022-09-06T22:09:03.874Z,23.85
2022-09-06T22:11:34.065Z,23.82
2022-09-06T22:14:04.827Z,23.79
2022-09-06T22:16:35.086Z,23.75
2022-09-06T22:19:04.757Z,23.73
2022-09-06T22:21:33.682Z,23.71
2022-09-06T22:24:05.126Z,23.69
2022-09-06T22:26:35.383Z,23.65
2022-09-06T22:29:06.914Z,23.60
2022-09-06T22:31:36.167Z,23.57
2022-09-06T22:38:09.751Z,23.40
2022-09-06T22:41:06.739Z,23.35
2022-09-06T22:52:16.793Z,23.27
2022-09-06T22:54:44.142Z,23.32
2022-09-06T22:57:13.033Z,23.34
2022-09-06T22:59:40.454Z,23.37
2022-09-06T23:02:07.809Z,23.37
2022-09-06T23:04:35.169Z,23.37
2022-09-06T23:07:02.674Z,23.34
2022-09-06T23:09:30.007Z,23.32
2022-09-06T23:11:57.352Z,23.30
2022-09-06T23:14:28.130Z,23.32
2022-09-06T23:16:55.502Z,23.34
2022-09-06T23:19:22.813Z,23.36
2022-09-06T23:21:50.146Z,23.37
2022-09-06T23:24:17.491Z,23.37
2022-09-06T23:26:44.915Z,23.37
2022-09-06T23:29:12.830Z,23.38
2022-09-06T23:31:42.502Z,23.36
2022-09-06T23:34:10.069Z,23.37
2022-09-06T23:36:37.517Z,23.35
2022-09-06T23:39:07.115Z,23.32
2022-09-06T23:41:34.981Z,23.27
2022-09-06T23:44:03.288Z,23.25
2022-09-06T23:46:31.799Z,23.21
2022-09-06T23:49:01.015Z,23.19
2022-09-06T23:51:28.407Z,23.16
2022-09-06T23:53:55.874Z,23.15
2022-09-06T23:56:23.197Z,23.16
2022-09-06T23:58:50.663Z,23.19
